sensor_id;sensor_type;location;lat;lon;timestamp;P1;durP1;ratioP1;P2;durP2;ratioP2
22160;SDS011;49035;48.812;11.762;2023-07-20T00:00:17;4.38;;;2.95;;
22160;SDS011;49035;48.812;11.762;2023-07-20T00:02:43;4.40;;;3.05;;
22160;SDS011;49035;48.812;11.762;2023-07-20T00:05:09;3.47;;;2.70;;
22160;SDS011;49035;48.812;11.762;2023-07-20T00:07:34;10.25;;;2.83;;
22160;SDS011;49035;48.812;11.762;2023-07-20T00:10:00;5.25;;;3.22;;
22160;SDS011;49035;48.812;11.762;2023-07-20T00:12:26;5.68;;;3.00;;
22160;SDS011;49035;48.812;11.762;2023-07-20T00:14:51;4.65;;;3.13;;
22160;SDS011;49035;48.812;11.762;2023-07-20T00:17:18;4.30;;;3.22;;
22160;SDS011;49035;48.812;11.762;2023-07-20T00:19:44;3.65;;;2.95;;
22160;SDS011;49035;48.812;11.762;2023-07-20T00:22:10;4.57;;;3.38;;
22160;SDS011;49035;48.812;11.762;2023-07-20T00:24:36;8.90;;;2.85;;
22160;SDS011;49035;48.812;11.762;2023-07-20T00:27:01;5.47;;;2.90;;
22160;SDS011;49035;48.812;11.762;2023-07-20T00:29:27;6.10;;;2.80;;
22160;SDS011;49035;48.812;11.762;2023-07-20T00:31:53;5.13;;;3.20;;
22160;SDS011;49035;48.812;11.762;2023-07-20T00:34:18;3.60;;;2.60;;
22160;SDS011;49035;48.812;11.762;2023-07-20T00:36:44;7.05;;;3.50;;
22160;SDS011;49035;48.812;11.762;2023-07-20T00:39:09;6.75;;;3.05;;
22160;SDS011;49035;48.812;11.762;2023-07-20T00:41:35;5.30;;;2.83;;
22160;SDS011;49035;48.812;11.762;2023-07-20T00:44:01;4.05;;;3.13;;
22160;SDS011;49035;48.812;11.762;2023-07-20T00:46:26;4.35;;;2.72;;
22160;SDS011;49035;48.812;11.762;2023-07-20T00:48:52;4.43;;;3.00;;
22160;SDS011;49035;48.812;11.762;2023-07-20T00:51:19;4.30;;;3.15;;
22160;SDS011;49035;48.812;11.762;2023-07-20T00:53:46;6.25;;;3.40;;
22160;SDS011;49035;48.812;11.762;2023-07-20T00:56:12;3.78;;;2.88;;
22160;SDS011;49035;48.812;11.762;2023-07-20T00:58:37;5.93;;;3.75;;
22160;SDS011;49035;48.812;11.762;2023-07-20T01:01:03;7.57;;;3.55;;
22160;SDS011;49035;48.812;11.762;2023-07-20T01:03:29;6.88;;;3.50;;
22160;SDS011;49035;48.812;11.762;2023-07-20T01:05:56;4.18;;;2.97;;
22160;SDS011;49035;48.812;11.762;2023-07-20T01:09:18;7.82;;;3.60;;
22160;SDS011;49035;48.812;11.762;2023-07-20T01:14:33;4.78;;;3.70;;
22160;SDS011;49035;48.812;11.762;2023-07-20T01:16:59;6.28;;;3.92;;
22160;SDS011;49035;48.812;11.762;2023-07-20T01:19:25;5.97;;;3.75;;
22160;SDS011;49035;48.812;11.762;2023-07-20T01:21:53;6.57;;;3.78;;
22160;SDS011;49035;48.812;11.762;2023-07-20T01:32:40;7.32;;;4.00;;
22160;SDS011;49035;48.812;11.762;2023-07-20T01:35:09;5.07;;;3.60;;
22160;SDS011;49035;48.812;11.762;2023-07-20T01:37:39;4.97;;;4.07;;
22160;SDS011;49035;48.812;11.762;2023-07-20T01:40:06;5.28;;;3.85;;
22160;SDS011;49035;48.812;11.762;2023-07-20T01:42:33;5.15;;;3.90;;
22160;SDS011;49035;48.812;11.762;2023-07-20T01:44:59;8.40;;;4.05;;
22160;SDS011;49035;48.812;11.762;2023-07-20T01:47:25;7.25;;;3.63;;
22160;SDS011;49035;48.812;11.762;2023-07-20T01:49:50;5.28;;;3.22;;
22160;SDS011;49035;48.812;11.762;2023-07-20T01:52:16;5.80;;;4.10;;
22160;SDS011;49035;48.812;11.762;2023-07-20T01:54:41;4.70;;;3.95;;
22160;SDS011;49035;48.812;11.762;2023-07-20T01:57:07;7.97;;;3.60;;
22160;SDS011;49035;48.812;11.762;2023-07-20T01:59:33;6.53;;;3.67;;
22160;SDS011;49035;48.812;11.762;2023-07-20T02:01:58;6.82;;;3.85;;
22160;SDS011;49035;48.812;11.762;2023-07-20T02:04:24;7.75;;;4.05;;
22160;SDS011;49035;48.812;11.762;2023-07-20T02:06:49;5.65;;;3.70;;
22160;SDS011;49035;48.812;11.762;2023-07-20T02:09:15;6.20;;;4.47;;
22160;SDS011;49035;48.812;11.762;2023-07-20T02:11:40;11.25;;;4.40;;
22160;SDS011;49035;48.812;11.762;2023-07-20T02:14:06;9.32;;;4.18;;
22160;SDS011;49035;48.812;11.762;2023-07-20T02:16:32;6.50;;;3.88;;
22160;SDS011;49035;48.812;11.762;2023-07-20T02:18:57;7.95;;;4.60;;
22160;SDS011;49035;48.812;11.762;2023-07-20T02:21:23;6.68;;;3.40;;
22160;SDS011;49035;48.812;11.762;2023-07-20T02:23:49;8.48;;;4.32;;
22160;SDS011;49035;48.812;11.762;2023-07-20T02:26:14;7.50;;;3.67;;
22160;SDS011;49035;48.812;11.762;2023-07-20T02:28:40;6.78;;;3.75;;
22160;SDS011;49035;48.812;11.762;2023-07-20T02:31:06;6.15;;;4.00;;
22160;SDS011;49035;48.812;11.762;2023-07-20T02:33:32;9.50;;;4.50;;
22160;SDS011;49035;48.812;11.762;2023-07-20T02:35:57;6.63;;;4.25;;
22160;SDS011;49035;48.812;11.762;2023-07-20T02:38:23;7.72;;;3.90;;
22160;SDS011;49035;48.812;11.762;2023-07-20T02:40:49;4.75;;;3.60;;
22160;SDS011;49035;48.812;11.762;2023-07-20T02:43:15;6.03;;;3.97;;
22160;SDS011;49035;48.812;11.762;2023-07-20T02:45:41;6.18;;;4.22;;
22160;SDS011;49035;48.812;11.762;2023-07-20T02:48:07;6.40;;;4.13;;
22160;SDS011;49035;48.812;11.762;2023-07-20T02:50:33;6.63;;;3.92;;
22160;SDS011;49035;48.812;11.762;2023-07-20T02:53:00;7.70;;;4.20;;
22160;SDS011;49035;48.812;11.762;2023-07-20T02:55:26;4.90;;;3.95;;
22160;SDS011;49035;48.812;11.762;2023-07-20T02:57:51;5.45;;;3.70;;
22160;SDS011;49035;48.812;11.762;2023-07-20T03:00:17;7.47;;;4.20;;
22160;SDS011;49035;48.812;11.762;2023-07-20T03:02:44;5.82;;;3.83;;
22160;SDS011;49035;48.812;11.762;2023-07-20T03:05:12;6.65;;;4.00;;
22160;SDS011;49035;48.812;11.762;2023-07-20T03:07:38;7.80;;;3.97;;
22160;SDS011;49035;48.812;11.762;2023-07-20T03:10:05;6.68;;;4.47;;
22160;SDS011;49035;48.812;11.762;2023-07-20T03:12:34;5.78;;;4.20;;
22160;SDS011;49035;48.812;11.762;2023-07-20T03:15:01;6.45;;;3.53;;
22160;SDS011;49035;48.812;11.762;2023-07-20T03:17:27;4.75;;;3.83;;
22160;SDS011;49035;48.812;11.762;2023-07-20T03:19:53;5.05;;;4.10;;
22160;SDS011;49035;48.812;11.762;2023-07-20T03:22:18;7.07;;;4.18;;
22160;SDS011;49035;48.812;11.762;2023-07-20T03:24:44;7.03;;;4.45;;
22160;SDS011;49035;48.812;11.762;2023-07-20T03:27:10;5.00;;;4.07;;
22160;SDS011;49035;48.812;11.762;2023-07-20T03:29:35;6.65;;;3.60;;
22160;SDS011;49035;48.812;11.762;2023-07-20T03:32:01;5.15;;;4.10;;
22160;SDS011;49035;48.812;11.762;2023-07-20T03:34:27;6.45;;;4.18;;
22160;SDS011;49035;48.812;11.762;2023-07-20T03:36:52;6.45;;;4.35;;
22160;SDS011;49035;48.812;11.762;2023-07-20T03:39:18;7.00;;;3.90;;
22160;SDS011;49035;48.812;11.762;2023-07-20T03:41:43;6.60;;;4.00;;
22160;SDS011;49035;48.812;11.762;2023-07-20T03:44:09;5.55;;;3.10;;
22160;SDS011;49035;48.812;11.762;2023-07-20T03:46:34;5.38;;;3.85;;
22160;SDS011;49035;48.812;11.762;2023-07-20T03:49:00;7.93;;;3.80;;
22160;SDS011;49035;48.812;11.762;2023-07-20T03:51:26;5.88;;;3.58;;
22160;SDS011;49035;48.812;11.762;2023-07-20T03:53:51;5.70;;;3.83;;
22160;SDS011;49035;48.812;11.762;2023-07-20T03:56:17;4.35;;;3.45;;
22160;SDS011;49035;48.812;11.762;2023-07-20T03:58:42;4.63;;;3.20;;
22160;SDS011;49035;48.812;11.762;2023-07-20T04:01:08;6.40;;;3.45;;
22160;SDS011;49035;48.812;11.762;2023-07-20T04:03:34;6.28;;;2.75;;
22160;SDS011;49035;48.812;11.762;2023-07-20T04:06:01;4.65;;;3.38;;
22160;SDS011;49035;48.812;11.762;2023-07-20T04:08:27;5.55;;;3.28;;
22160;SDS011;49035;48.812;11.762;2023-07-20T04:10:52;4.43;;;3.10;;
22160;SDS011;49035;48.812;11.762;2023-07-20T04:13:18;4.43;;;2.67;;
22160;SDS011;49035;48.812;11.762;2023-07-20T04:15:44;5.03;;;2.60;;
22160;SDS011;49035;48.812;11.762;2023-07-20T04:18:10;8.20;;;2.70;;
22160;SDS011;49035;48.812;11.762;2023-07-20T04:20:35;8.15;;;3.28;;
22160;SDS011;49035;48.812;11.762;2023-07-20T04:23:01;3.75;;;2.72;;
22160;SDS011;49035;48.812;11.762;2023-07-20T04:25:26;4.07;;;2.45;;
22160;SDS011;49035;48.812;11.762;2023-07-20T04:27:52;3.38;;;2.60;;
22160;SDS011;49035;48.812;11.762;2023-07-20T04:30:18;4.05;;;2.40;;
22160;SDS011;49035;48.812;11.762;2023-07-20T04:32:45;4.15;;;2.63;;
22160;SDS011;49035;48.812;11.762;2023-07-20T04:35:17;6.43;;;2.63;;
22160;SDS011;49035;48.812;11.762;2023-07-20T04:38:02;4.95;;;2.28;;
22160;SDS011;49035;48.812;11.762;2023-07-20T04:40:28;3.50;;;2.50;;
22160;SDS011;49035;48.812;11.762;2023-07-20T04:42:53;5.28;;;2.50;;
22160;SDS011;49035;48.812;11.762;2023-07-20T04:45:19;6.35;;;2.40;;
22160;SDS011;49035;48.812;11.762;2023-07-20T04:47:44;4.50;;;2.63;;
22160;SDS011;49035;48.812;11.762;2023-07-20T04:50:10;4.95;;;2.25;;
22160;SDS011;49035;48.812;11.762;2023-07-20T04:52:36;3.05;;;2.53;;
22160;SDS011;49035;48.812;11.762;2023-07-20T04:55:01;3.88;;;2.28;;
22160;SDS011;49035;48.812;11.762;2023-07-20T04:57:29;4.60;;;2.45;;
22160;SDS011;49035;48.812;11.762;2023-07-20T04:59:55;6.82;;;2.40;;
22160;SDS011;49035;48.812;11.762;2023-07-20T05:02:20;3.45;;;2.28;;
22160;SDS011;49035;48.812;11.762;2023-07-20T05:04:46;3.55;;;1.83;;
22160;SDS011;49035;48.812;11.762;2023-07-20T05:07:11;4.60;;;1.88;;
22160;SDS011;49035;48.812;11.762;2023-07-20T05:09:37;3.35;;;2.00;;
22160;SDS011;49035;48.812;11.762;2023-07-20T05:12:03;2.42;;;1.88;;
22160;SDS011;49035;48.812;11.762;2023-07-20T05:14:28;3.30;;;2.22;;
22160;SDS011;49035;48.812;11.762;2023-07-20T05:16:54;3.05;;;1.98;;
22160;SDS011;49035;48.812;11.762;2023-07-20T05:19:19;2.80;;;1.92;;
22160;SDS011;49035;48.812;11.762;2023-07-20T05:21:45;5.18;;;2.15;;
22160;SDS011;49035;48.812;11.762;2023-07-20T05:24:11;4.88;;;1.98;;
22160;SDS011;49035;48.812;11.762;2023-07-20T05:26:36;3.50;;;1.98;;
22160;SDS011;49035;48.812;11.762;2023-07-20T05:29:03;2.38;;;1.83;;
22160;SDS011;49035;48.812;11.762;2023-07-20T05:31:28;5.50;;;2.45;;
22160;SDS011;49035;48.812;11.762;2023-07-20T05:33:55;3.42;;;2.13;;
22160;SDS011;49035;48.812;11.762;2023-07-20T05:36:21;3.88;;;1.80;;
22160;SDS011;49035;48.812;11.762;2023-07-20T05:38:46;5.22;;;1.65;;
22160;SDS011;49035;48.812;11.762;2023-07-20T05:41:13;3.25;;;2.08;;
22160;SDS011;49035;48.812;11.762;2023-07-20T05:43:38;6.57;;;1.80;;
22160;SDS011;49035;48.812;11.762;2023-07-20T05:46:04;4.95;;;1.73;;
22160;SDS011;49035;48.812;11.762;2023-07-20T05:48:30;3.50;;;2.03;;
22160;SDS011;49035;48.812;11.762;2023-07-20T05:50:55;2.78;;;1.85;;
22160;SDS011;49035;48.812;11.762;2023-07-20T05:53:21;3.53;;;1.85;;
22160;SDS011;49035;48.812;11.762;2023-07-20T05:55:51;5.78;;;1.90;;
22160;SDS011;49035;48.812;11.762;2023-07-20T05:58:18;3.20;;;1.83;;
22160;SDS011;49035;48.812;11.762;2023-07-20T06:00:43;7.90;;;2.13;;
22160;SDS011;49035;48.812;11.762;2023-07-20T06:03:12;4.25;;;2.00;;
22160;SDS011;49035;48.812;11.762;2023-07-20T06:05:37;3.38;;;2.25;;
22160;SDS011;49035;48.812;11.762;2023-07-20T06:08:03;5.75;;;2.20;;
22160;SDS011;49035;48.812;11.762;2023-07-20T06:10:29;2.65;;;1.50;;
22160;SDS011;49035;48.812;11.762;2023-07-20T06:12:54;3.33;;;2.35;;
22160;SDS011;49035;48.812;11.762;2023-07-20T06:15:28;3.55;;;2.10;;
22160;SDS011;49035;48.812;11.762;2023-07-20T06:17:56;4.13;;;2.13;;
22160;SDS011;49035;48.812;11.762;2023-07-20T06:20:23;3.47;;;1.92;;
22160;SDS011;49035;48.812;11.762;2023-07-20T06:22:49;3.05;;;1.90;;
22160;SDS011;49035;48.812;11.762;2023-07-20T06:25:14;5.03;;;2.20;;
22160;SDS011;49035;48.812;11.762;2023-07-20T06:27:40;4.10;;;2.30;;
22160;SDS011;49035;48.812;11.762;2023-07-20T06:30:06;5.88;;;2.38;;
22160;SDS011;49035;48.812;11.762;2023-07-20T06:32:32;7.15;;;2.20;;
22160;SDS011;49035;48.812;11.762;2023-07-20T06:34:58;6.03;;;2.25;;
22160;SDS011;49035;48.812;11.762;2023-07-20T06:37:23;5.85;;;2.40;;
22160;SDS011;49035;48.812;11.762;2023-07-20T06:39:49;8.77;;;2.15;;
22160;SDS011;49035;48.812;11.762;2023-07-20T06:42:15;6.75;;;2.15;;
22160;SDS011;49035;48.812;11.762;2023-07-20T06:44:40;5.65;;;2.50;;
22160;SDS011;49035;48.812;11.762;2023-07-20T06:47:06;3.58;;;2.00;;
22160;SDS011;49035;48.812;11.762;2023-07-20T06:49:32;6.93;;;2.10;;
22160;SDS011;49035;48.812;11.762;2023-07-20T06:51:58;4.32;;;1.80;;
22160;SDS011;49035;48.812;11.762;2023-07-20T06:54:23;6.40;;;2.30;;
22160;SDS011;49035;48.812;11.762;2023-07-20T06:56:49;5.85;;;2.65;;
22160;SDS011;49035;48.812;11.762;2023-07-20T06:59:15;3.85;;;2.20;;
22160;SDS011;49035;48.812;11.762;2023-07-20T07:01:40;5.60;;;2.25;;
22160;SDS011;49035;48.812;11.762;2023-07-20T07:04:06;4.53;;;1.90;;
22160;SDS011;49035;48.812;11.762;2023-07-20T07:06:31;3.33;;;1.95;;
22160;SDS011;49035;48.812;11.762;2023-07-20T07:08:58;4.00;;;2.35;;
22160;SDS011;49035;48.812;11.762;2023-07-20T07:11:23;6.25;;;2.47;;
22160;SDS011;49035;48.812;11.762;2023-07-20T07:13:49;2.67;;;1.65;;
22160;SDS011;49035;48.812;11.762;2023-07-20T07:16:16;4.57;;;2.00;;
22160;SDS011;49035;48.812;11.762;2023-07-20T07:18:47;6.22;;;2.50;;
22160;SDS011;49035;48.812;11.762;2023-07-20T07:21:15;5.32;;;1.90;;
22160;SDS011;49035;48.812;11.762;2023-07-20T07:23:40;6.25;;;2.28;;
22160;SDS011;49035;48.812;11.762;2023-07-20T07:26:06;2.72;;;2.17;;
22160;SDS011;49035;48.812;11.762;2023-07-20T07:28:32;3.95;;;1.55;;
22160;SDS011;49035;48.812;11.762;2023-07-20T07:30:57;4.53;;;1.73;;
22160;SDS011;49035;48.812;11.762;2023-07-20T07:33:23;4.88;;;1.83;;
22160;SDS011;49035;48.812;11.762;2023-07-20T07:35:49;10.07;;;2.72;;
22160;SDS011;49035;48.812;11.762;2023-07-20T07:38:17;4.28;;;1.88;;
22160;SDS011;49035;48.812;11.762;2023-07-20T07:40:43;5.90;;;2.17;;
22160;SDS011;49035;48.812;11.762;2023-07-20T07:43:08;3.42;;;2.33;;
22160;SDS011;49035;48.812;11.762;2023-07-20T07:45:35;4.43;;;2.33;;
22160;SDS011;49035;48.812;11.762;2023-07-20T07:48:04;5.57;;;2.05;;
22160;SDS011;49035;48.812;11.762;2023-07-20T07:50:30;4.85;;;2.28;;
22160;SDS011;49035;48.812;11.762;2023-07-20T07:52:56;3.75;;;2.15;;
22160;SDS011;49035;48.812;11.762;2023-07-20T07:55:22;3.28;;;2.10;;
22160;SDS011;49035;48.812;11.762;2023-07-20T07:57:47;3.65;;;1.75;;
22160;SDS011;49035;48.812;11.762;2023-07-20T08:00:13;3.30;;;2.03;;
22160;SDS011;49035;48.812;11.762;2023-07-20T08:02:40;3.58;;;1.90;;
22160;SDS011;49035;48.812;11.762;2023-07-20T08:05:07;4.22;;;2.38;;
22160;SDS011;49035;48.812;11.762;2023-07-20T08:07:32;4.88;;;2.22;;
22160;SDS011;49035;48.812;11.762;2023-07-20T08:09:58;2.25;;;1.90;;
22160;SDS011;49035;48.812;11.762;2023-07-20T08:12:25;4.93;;;2.28;;
22160;SDS011;49035;48.812;11.762;2023-07-20T08:14:52;6.10;;;2.17;;
22160;SDS011;49035;48.812;11.762;2023-07-20T08:17:17;4.68;;;2.10;;
22160;SDS011;49035;48.812;11.762;2023-07-20T08:19:43;6.35;;;2.55;;
22160;SDS011;49035;48.812;11.762;2023-07-20T08:22:10;4.15;;;2.30;;
22160;SDS011;49035;48.812;11.762;2023-07-20T08:24:39;5.53;;;2.35;;
22160;SDS011;49035;48.812;11.762;2023-07-20T08:27:05;4.28;;;2.22;;
22160;SDS011;49035;48.812;11.762;2023-07-20T08:29:31;4.13;;;2.15;;
22160;SDS011;49035;48.812;11.762;2023-07-20T08:31:56;6.90;;;3.05;;
22160;SDS011;49035;48.812;11.762;2023-07-20T08:34:22;7.03;;;2.70;;
22160;SDS011;49035;48.812;11.762;2023-07-20T08:36:48;6.78;;;2.03;;
22160;SDS011;49035;48.812;11.762;2023-07-20T08:39:13;3.67;;;1.85;;
22160;SDS011;49035;48.812;11.762;2023-07-20T08:41:39;5.32;;;2.40;;
22160;SDS011;49035;48.812;11.762;2023-07-20T08:44:08;4.00;;;2.30;;
22160;SDS011;49035;48.812;11.762;2023-07-20T08:46:35;3.33;;;1.98;;
22160;SDS011;49035;48.812;11.762;2023-07-20T08:49:04;5.03;;;2.20;;
22160;SDS011;49035;48.812;11.762;2023-07-20T08:51:30;3.30;;;2.40;;
22160;SDS011;49035;48.812;11.762;2023-07-20T08:53:57;3.65;;;2.03;;
22160;SDS011;49035;48.812;11.762;2023-07-20T08:56:23;4.97;;;1.90;;
22160;SDS011;49035;48.812;11.762;2023-07-20T08:58:51;4.30;;;1.90;;
22160;SDS011;49035;48.812;11.762;2023-07-20T09:01:19;4.35;;;1.95;;
22160;SDS011;49035;48.812;11.762;2023-07-20T09:03:45;6.05;;;2.00;;
22160;SDS011;49035;48.812;11.762;2023-07-20T09:06:11;2.45;;;1.60;;
22160;SDS011;49035;48.812;11.762;2023-07-20T09:08:40;6.15;;;2.00;;
22160;SDS011;49035;48.812;11.762;2023-07-20T09:11:06;3.55;;;1.70;;
22160;SDS011;49035;48.812;11.762;2023-07-20T09:13:33;8.02;;;1.83;;
22160;SDS011;49035;48.812;11.762;2023-07-20T09:15:59;6.28;;;1.95;;
22160;SDS011;49035;48.812;11.762;2023-07-20T09:18:28;2.92;;;1.77;;
22160;SDS011;49035;48.812;11.762;2023-07-20T09:21:01;2.15;;;1.67;;
22160;SDS011;49035;48.812;11.762;2023-07-20T09:26:01;6.07;;;1.85;;
22160;SDS011;49035;48.812;11.762;2023-07-20T09:28:42;3.78;;;1.88;;
22160;SDS011;49035;48.812;11.762;2023-07-20T09:31:15;2.45;;;1.92;;
22160;SDS011;49035;48.812;11.762;2023-07-20T09:33:45;2.47;;;1.55;;
22160;SDS011;49035;48.812;11.762;2023-07-20T09:36:11;4.70;;;1.83;;
22160;SDS011;49035;48.812;11.762;2023-07-20T09:38:38;4.32;;;1.60;;
22160;SDS011;49035;48.812;11.762;2023-07-20T09:41:05;7.35;;;1.80;;
22160;SDS011;49035;48.812;11.762;2023-07-20T09:43:34;9.05;;;2.05;;
22160;SDS011;49035;48.812;11.762;2023-07-20T09:46:00;4.80;;;1.80;;
22160;SDS011;49035;48.812;11.762;2023-07-20T09:48:26;2.78;;;1.85;;
22160;SDS011;49035;48.812;11.762;2023-07-20T09:50:52;2.90;;;1.70;;
22160;SDS011;49035;48.812;11.762;2023-07-20T09:53:18;6.40;;;1.58;;
22160;SDS011;49035;48.812;11.762;2023-07-20T09:55:44;4.80;;;2.10;;
22160;SDS011;49035;48.812;11.762;2023-07-20T09:58:12;1.98;;;1.73;;
22160;SDS011;49035;48.812;11.762;2023-07-20T10:00:39;4.15;;;1.80;;
22160;SDS011;49035;48.812;11.762;2023-07-20T10:03:08;8.10;;;2.25;;
22160;SDS011;49035;48.812;11.762;2023-07-20T10:05:39;2.75;;;1.73;;
22160;SDS011;49035;48.812;11.762;2023-07-20T10:08:08;4.30;;;1.55;;
22160;SDS011;49035;48.812;11.762;2023-07-20T10:10:37;3.65;;;1.45;;
22160;SDS011;49035;48.812;11.762;2023-07-20T10:13:05;6.18;;;1.90;;
22160;SDS011;49035;48.812;11.762;2023-07-20T10:15:43;3.58;;;1.80;;
22160;SDS011;49035;48.812;11.762;2023-07-20T10:18:28;3.33;;;1.42;;
22160;SDS011;49035;48.812;11.762;2023-07-20T10:20:56;6.57;;;1.92;;
22160;SDS011;49035;48.812;11.762;2023-07-20T10:23:24;5.32;;;1.63;;
22160;SDS011;49035;48.812;11.762;2023-07-20T10:25:51;3.38;;;1.90;;
22160;SDS011;49035;48.812;11.762;2023-07-20T10:28:18;2.90;;;1.50;;
22160;SDS011;49035;48.812;11.762;2023-07-20T10:30:44;5.25;;;1.60;;
22160;SDS011;49035;48.812;11.762;2023-07-20T10:33:10;3.25;;;1.70;;
22160;SDS011;49035;48.812;11.762;2023-07-20T10:35:55;2.95;;;1.50;;
22160;SDS011;49035;48.812;11.762;2023-07-20T10:38:38;1.67;;;1.50;;
22160;SDS011;49035;48.812;11.762;2023-07-20T10:41:15;1.60;;;1.30;;
22160;SDS011;49035;48.812;11.762;2023-07-20T10:43:43;5.10;;;1.85;;
22160;SDS011;49035;48.812;11.762;2023-07-20T10:46:10;6.93;;;1.88;;
22160;SDS011;49035;48.812;11.762;2023-07-20T10:48:45;4.45;;;1.50;;
22160;SDS011;49035;48.812;11.762;2023-07-20T10:51:46;6.35;;;2.00;;
22160;SDS011;49035;48.812;11.762;2023-07-20T10:56:43;2.13;;;1.27;;
22160;SDS011;49035;48.812;11.762;2023-07-20T11:01:52;1.75;;;1.30;;
22160;SDS011;49035;48.812;11.762;2023-07-20T11:04:37;2.50;;;1.50;;
22160;SDS011;49035;48.812;11.762;2023-07-20T11:07:07;2.95;;;1.70;;
22160;SDS011;49035;48.812;11.762;2023-07-20T11:09:36;9.00;;;1.30;;
22160;SDS011;49035;48.812;11.762;2023-07-20T11:12:13;3.83;;;1.33;;
22160;SDS011;49035;48.812;11.762;2023-07-20T11:14:41;3.83;;;1.55;;
22160;SDS011;49035;48.812;11.762;2023-07-20T11:17:21;2.22;;;1.40;;
22160;SDS011;49035;48.812;11.762;2023-07-20T11:19:58;2.83;;;1.40;;
22160;SDS011;49035;48.812;11.762;2023-07-20T11:22:28;2.95;;;1.80;;
22160;SDS011;49035;48.812;11.762;2023-07-20T11:24:56;1.13;;;1.00;;
22160;SDS011;49035;48.812;11.762;2023-07-20T11:27:23;4.47;;;1.17;;
22160;SDS011;49035;48.812;11.762;2023-07-20T11:29:49;4.60;;;1.27;;
22160;SDS011;49035;48.812;11.762;2023-07-20T11:32:21;2.10;;;1.17;;
22160;SDS011;49035;48.812;11.762;2023-07-20T11:34:47;2.00;;;1.30;;
22160;SDS011;49035;48.812;11.762;2023-07-20T11:37:14;1.52;;;1.20;;
22160;SDS011;49035;48.812;11.762;2023-07-20T11:39:39;5.35;;;1.17;;
22160;SDS011;49035;48.812;11.762;2023-07-20T11:42:05;10.85;;;1.83;;
22160;SDS011;49035;48.812;11.762;2023-07-20T11:44:31;6.60;;;1.48;;
22160;SDS011;49035;48.812;11.762;2023-07-20T11:47:04;3.25;;;1.38;;
22160;SDS011;49035;48.812;11.762;2023-07-20T11:49:38;5.68;;;1.40;;
22160;SDS011;49035;48.812;11.762;2023-07-20T11:52:08;1.65;;;1.15;;
22160;SDS011;49035;48.812;11.762;2023-07-20T11:54:35;3.38;;;1.17;;
22160;SDS011;49035;48.812;11.762;2023-07-20T11:57:04;5.53;;;1.30;;
22160;SDS011;49035;48.812;11.762;2023-07-20T11:59:30;1.70;;;1.05;;
22160;SDS011;49035;48.812;11.762;2023-07-20T12:01:56;6.85;;;1.50;;
22160;SDS011;49035;48.812;11.762;2023-07-20T12:04:23;2.38;;;1.15;;
22160;SDS011;49035;48.812;11.762;2023-07-20T12:06:49;6.93;;;1.27;;
22160;SDS011;49035;48.812;11.762;2023-07-20T12:09:16;3.97;;;1.05;;
22160;SDS011;49035;48.812;11.762;2023-07-20T12:11:43;1.95;;;1.23;;
22160;SDS011;49035;48.812;11.762;2023-07-20T12:14:12;0.98;;;0.90;;
22160;SDS011;49035;48.812;11.762;2023-07-20T12:16:38;2.85;;;1.63;;
22160;SDS011;49035;48.812;11.762;2023-07-20T12:21:37;2.92;;;1.27;;
22160;SDS011;49035;48.812;11.762;2023-07-20T12:24:05;1.73;;;1.00;;
22160;SDS011;49035;48.812;11.762;2023-07-20T12:26:32;5.63;;;1.10;;
22160;SDS011;49035;48.812;11.762;2023-07-20T12:28:58;1.85;;;0.90;;
22160;SDS011;49035;48.812;11.762;2023-07-20T12:31:25;3.03;;;1.35;;
22160;SDS011;49035;48.812;11.762;2023-07-20T12:33:52;3.67;;;1.40;;
22160;SDS011;49035;48.812;11.762;2023-07-20T12:36:20;5.70;;;1.40;;
22160;SDS011;49035;48.812;11.762;2023-07-20T12:38:46;1.70;;;0.98;;
22160;SDS011;49035;48.812;11.762;2023-07-20T12:41:12;1.85;;;1.10;;
22160;SDS011;49035;48.812;11.762;2023-07-20T12:43:39;2.92;;;1.40;;
22160;SDS011;49035;48.812;11.762;2023-07-20T12:46:08;1.38;;;0.90;;
22160;SDS011;49035;48.812;11.762;2023-07-20T12:48:35;3.72;;;1.10;;
22160;SDS011;49035;48.812;11.762;2023-07-20T12:51:06;1.38;;;1.20;;
22160;SDS011;49035;48.812;11.762;2023-07-20T12:53:31;5.18;;;1.20;;
22160;SDS011;49035;48.812;11.762;2023-07-20T12:55:58;1.73;;;1.45;;
22160;SDS011;49035;48.812;11.762;2023-07-20T12:58:24;1.58;;;1.10;;
22160;SDS011;49035;48.812;11.762;2023-07-20T13:00:50;4.55;;;1.13;;
22160;SDS011;49035;48.812;11.762;2023-07-20T13:03:15;1.80;;;1.02;;
22160;SDS011;49035;48.812;11.762;2023-07-20T13:05:43;2.00;;;1.30;;
22160;SDS011;49035;48.812;11.762;2023-07-20T13:08:09;1.98;;;1.05;;
22160;SDS011;49035;48.812;11.762;2023-07-20T13:10:35;2.08;;;1.20;;
22160;SDS011;49035;48.812;11.762;2023-07-20T13:13:00;2.53;;;1.30;;
22160;SDS011;49035;48.812;11.762;2023-07-20T13:15:30;3.25;;;1.35;;
22160;SDS011;49035;48.812;11.762;2023-07-20T13:17:57;2.95;;;1.23;;
22160;SDS011;49035;48.812;11.762;2023-07-20T13:20:23;2.60;;;1.10;;
22160;SDS011;49035;48.812;11.762;2023-07-20T13:22:49;1.92;;;1.23;;
22160;SDS011;49035;48.812;11.762;2023-07-20T13:25:14;3.50;;;1.17;;
22160;SDS011;49035;48.812;11.762;2023-07-20T13:27:40;2.30;;;0.95;;
22160;SDS011;49035;48.812;11.762;2023-07-20T13:30:06;1.25;;;0.93;;
22160;SDS011;49035;48.812;11.762;2023-07-20T13:32:34;2.42;;;1.13;;
22160;SDS011;49035;48.812;11.762;2023-07-20T13:35:00;2.28;;;1.23;;
22160;SDS011;49035;48.812;11.762;2023-07-20T13:37:26;1.92;;;1.23;;
22160;SDS011;49035;48.812;11.762;2023-07-20T13:39:52;7.43;;;1.40;;
22160;SDS011;49035;48.812;11.762;2023-07-20T13:42:17;2.80;;;1.48;;
22160;SDS011;49035;48.812;11.762;2023-07-20T13:44:43;4.00;;;1.23;;
22160;SDS011;49035;48.812;11.762;2023-07-20T13:47:08;1.27;;;0.93;;
22160;SDS011;49035;48.812;11.762;2023-07-20T13:49:34;2.53;;;1.20;;
22160;SDS011;49035;48.812;11.762;2023-07-20T13:51:59;3.20;;;1.17;;
22160;SDS011;49035;48.812;11.762;2023-07-20T13:54:28;2.10;;;1.40;;
22160;SDS011;49035;48.812;11.762;2023-07-20T13:56:54;3.13;;;1.33;;
22160;SDS011;49035;48.812;11.762;2023-07-20T13:59:19;6.15;;;1.75;;
22160;SDS011;49035;48.812;11.762;2023-07-20T14:01:45;1.60;;;1.30;;
22160;SDS011;49035;48.812;11.762;2023-07-20T14:04:11;2.53;;;1.40;;
22160;SDS011;49035;48.812;11.762;2023-07-20T14:06:37;1.40;;;1.20;;
22160;SDS011;49035;48.812;11.762;2023-07-20T14:09:02;2.38;;;1.20;;
22160;SDS011;49035;48.812;11.762;2023-07-20T14:11:28;4.03;;;1.42;;
22160;SDS011;49035;48.812;11.762;2023-07-20T14:13:54;2.05;;;0.90;;
22160;SDS011;49035;48.812;11.762;2023-07-20T14:16:20;1.70;;;1.20;;
22160;SDS011;49035;48.812;11.762;2023-07-20T14:18:46;3.53;;;1.33;;
22160;SDS011;49035;48.812;11.762;2023-07-20T14:21:13;2.70;;;1.30;;
22160;SDS011;49035;48.812;11.762;2023-07-20T14:23:39;3.85;;;1.48;;
22160;SDS011;49035;48.812;11.762;2023-07-20T14:26:05;2.35;;;1.38;;
22160;SDS011;49035;48.812;11.762;2023-07-20T14:28:31;2.30;;;1.33;;
22160;SDS011;49035;48.812;11.762;2023-07-20T14:30:57;2.15;;;1.33;;
22160;SDS011;49035;48.812;11.762;2023-07-20T14:33:22;2.40;;;1.58;;
22160;SDS011;49035;48.812;11.762;2023-07-20T14:35:48;3.80;;;1.48;;
22160;SDS011;49035;48.812;11.762;2023-07-20T14:38:13;3.00;;;1.23;;
22160;SDS011;49035;48.812;11.762;2023-07-20T14:40:39;5.72;;;1.42;;
22160;SDS011;49035;48.812;11.762;2023-07-20T14:43:05;1.75;;;1.20;;
22160;SDS011;49035;48.812;11.762;2023-07-20T14:45:30;3.30;;;1.45;;
22160;SDS011;49035;48.812;11.762;2023-07-20T14:47:56;2.08;;;1.20;;
22160;SDS011;49035;48.812;11.762;2023-07-20T14:50:21;3.78;;;1.40;;
22160;SDS011;49035;48.812;11.762;2023-07-20T14:52:47;3.92;;;1.50;;